sensor_id;sensor_type;location;lat;lon;timestamp;P1;durP1;ratioP1;P2;durP2;ratioP2
25868;SDS011;13688;53.154;18.136;2024-01-27T00:00:34;20.70;;;3.27;;
25868;SDS011;13688;53.154;18.136;2024-01-27T00:05:58;16.77;;;3.07;;
25868;SDS011;13688;53.154;18.136;2024-01-27T00:11:21;15.28;;;2.92;;
25868;SDS011;13688;53.154;18.136;2024-01-27T00:16:43;13.10;;;2.60;;
25868;SDS011;13688;53.154;18.136;2024-01-27T00:22:06;14.63;;;2.77;;
25868;SDS011;13688;53.154;18.136;2024-01-27T00:27:29;17.48;;;3.22;;
25868;SDS011;13688;53.154;18.136;2024-01-27T00:32:52;17.12;;;3.22;;
25868;SDS011;13688;53.154;18.136;2024-01-27T00:38:15;23.90;;;4.05;;
25868;SDS011;13688;53.154;18.136;2024-01-27T00:43:38;16.97;;;2.85;;
25868;SDS011;13688;53.154;18.136;2024-01-27T00:49:01;14.75;;;3.25;;
25868;SDS011;13688;53.154;18.136;2024-01-27T00:54:24;18.05;;;2.85;;
25868;SDS011;13688;53.154;18.136;2024-01-27T00:59:47;16.15;;;3.22;;
25868;SDS011;13688;53.154;18.136;2024-01-27T01:05:10;19.48;;;3.42;;
25868;SDS011;13688;53.154;18.136;2024-01-27T01:10:33;18.73;;;3.05;;
25868;SDS011;13688;53.154;18.136;2024-01-27T01:15:55;15.63;;;2.83;;
25868;SDS011;13688;53.154;18.136;2024-01-27T01:21:17;14.83;;;2.83;;
25868;SDS011;13688;53.154;18.136;2024-01-27T01:26:40;15.85;;;2.90;;
25868;SDS011;13688;53.154;18.136;2024-01-27T01:32:03;17.35;;;2.95;;
25868;SDS011;13688;53.154;18.136;2024-01-27T01:37:25;17.92;;;2.85;;
25868;SDS011;13688;53.154;18.136;2024-01-27T01:42:51;21.12;;;3.25;;
25868;SDS011;13688;53.154;18.136;2024-01-27T01:48:16;11.35;;;2.08;;
25868;SDS011;13688;53.154;18.136;2024-01-27T01:53:39;19.87;;;2.75;;
25868;SDS011;13688;53.154;18.136;2024-01-27T01:59:04;13.85;;;2.70;;
25868;SDS011;13688;53.154;18.136;2024-01-27T02:04:27;20.40;;;3.20;;
25868;SDS011;13688;53.154;18.136;2024-01-27T02:09:56;16.53;;;3.00;;
25868;SDS011;13688;53.154;18.136;2024-01-27T02:15:23;11.12;;;2.77;;
25868;SDS011;13688;53.154;18.136;2024-01-27T02:20:45;14.65;;;2.90;;
25868;SDS011;13688;53.154;18.136;2024-01-27T02:26:08;17.37;;;3.75;;
25868;SDS011;13688;53.154;18.136;2024-01-27T02:31:30;22.15;;;3.40;;
25868;SDS011;13688;53.154;18.136;2024-01-27T02:36:53;13.53;;;2.75;;
25868;SDS011;13688;53.154;18.136;2024-01-27T02:42:15;16.50;;;2.85;;
25868;SDS011;13688;53.154;18.136;2024-01-27T02:47:37;17.32;;;2.70;;
25868;SDS011;13688;53.154;18.136;2024-01-27T02:53:00;23.05;;;3.25;;
25868;SDS011;13688;53.154;18.136;2024-01-27T02:58:22;13.10;;;2.52;;
25868;SDS011;13688;53.154;18.136;2024-01-27T03:03:45;16.67;;;3.33;;
25868;SDS011;13688;53.154;18.136;2024-01-27T03:09:08;15.78;;;3.37;;
25868;SDS011;13688;53.154;18.136;2024-01-27T03:14:31;13.32;;;2.45;;
25868;SDS011;13688;53.154;18.136;2024-01-27T03:19:54;17.50;;;3.05;;
25868;SDS011;13688;53.154;18.136;2024-01-27T03:25:17;18.40;;;2.70;;
25868;SDS011;13688;53.154;18.136;2024-01-27T03:30:41;19.07;;;3.25;;
25868;SDS011;13688;53.154;18.136;2024-01-27T03:36:04;15.30;;;3.40;;
25868;SDS011;13688;53.154;18.136;2024-01-27T03:41:27;15.18;;;3.20;;
25868;SDS011;13688;53.154;18.136;2024-01-27T03:46:50;20.10;;;3.20;;
25868;SDS011;13688;53.154;18.136;2024-01-27T03:52:13;19.10;;;2.92;;
25868;SDS011;13688;53.154;18.136;2024-01-27T03:57:36;15.28;;;2.50;;
25868;SDS011;13688;53.154;18.136;2024-01-27T04:03:02;21.37;;;3.35;;
25868;SDS011;13688;53.154;18.136;2024-01-27T04:08:22;16.32;;;2.50;;
25868;SDS011;13688;53.154;18.136;2024-01-27T04:13:48;17.40;;;3.02;;
25868;SDS011;13688;53.154;18.136;2024-01-27T04:19:11;22.73;;;3.65;;
25868;SDS011;13688;53.154;18.136;2024-01-27T04:24:34;18.25;;;3.12;;
25868;SDS011;13688;53.154;18.136;2024-01-27T04:29:56;17.90;;;2.77;;
25868;SDS011;13688;53.154;18.136;2024-01-27T04:35:21;21.12;;;2.77;;
25868;SDS011;13688;53.154;18.136;2024-01-27T04:40:43;13.35;;;2.60;;
25868;SDS011;13688;53.154;18.136;2024-01-27T04:46:06;14.58;;;2.37;;
25868;SDS011;13688;53.154;18.136;2024-01-27T04:51:29;13.00;;;2.25;;
25868;SDS011;13688;53.154;18.136;2024-01-27T04:56:51;14.53;;;2.33;;
25868;SDS011;13688;53.154;18.136;2024-01-27T05:02:14;14.53;;;2.80;;
25868;SDS011;13688;53.154;18.136;2024-01-27T05:07:41;17.80;;;2.75;;
25868;SDS011;13688;53.154;18.136;2024-01-27T05:13:01;13.50;;;2.42;;
25868;SDS011;13688;53.154;18.136;2024-01-27T05:18:23;19.23;;;2.70;;
25868;SDS011;13688;53.154;18.136;2024-01-27T05:23:46;17.00;;;3.00;;
25868;SDS011;13688;53.154;18.136;2024-01-27T05:29:08;16.67;;;2.50;;
25868;SDS011;13688;53.154;18.136;2024-01-27T05:34:31;15.83;;;3.22;;
25868;SDS011;13688;53.154;18.136;2024-01-27T05:39:53;21.55;;;3.22;;
25868;SDS011;13688;53.154;18.136;2024-01-27T05:45:17;16.95;;;3.35;;
25868;SDS011;13688;53.154;18.136;2024-01-27T05:50:41;18.80;;;2.58;;
25868;SDS011;13688;53.154;18.136;2024-01-27T05:56:12;20.50;;;3.30;;
25868;SDS011;13688;53.154;18.136;2024-01-27T06:01:34;11.22;;;2.15;;
25868;SDS011;13688;53.154;18.136;2024-01-27T06:06:57;13.20;;;2.35;;
25868;SDS011;13688;53.154;18.136;2024-01-27T06:12:20;12.20;;;2.55;;
25868;SDS011;13688;53.154;18.136;2024-01-27T06:17:43;10.53;;;2.27;;
25868;SDS011;13688;53.154;18.136;2024-01-27T06:23:06;7.05;;;1.98;;
25868;SDS011;13688;53.154;18.136;2024-01-27T06:28:29;9.65;;;1.85;;
25868;SDS011;13688;53.154;18.136;2024-01-27T06:33:52;8.55;;;1.62;;
25868;SDS011;13688;53.154;18.136;2024-01-27T06:39:16;7.85;;;1.77;;
25868;SDS011;13688;53.154;18.136;2024-01-27T06:44:38;9.08;;;1.45;;
25868;SDS011;13688;53.154;18.136;2024-01-27T06:50:01;7.85;;;1.90;;
25868;SDS011;13688;53.154;18.136;2024-01-27T06:55:24;7.62;;;1.45;;
25868;SDS011;13688;53.154;18.136;2024-01-27T07:00:47;2.98;;;1.10;;
25868;SDS011;13688;53.154;18.136;2024-01-27T07:06:09;7.17;;;2.08;;
25868;SDS011;13688;53.154;18.136;2024-01-27T07:11:35;5.62;;;1.10;;
25868;SDS011;13688;53.154;18.136;2024-01-27T07:16:58;6.70;;;1.25;;
25868;SDS011;13688;53.154;18.136;2024-01-27T07:22:21;4.53;;;1.30;;
25868;SDS011;13688;53.154;18.136;2024-01-27T07:27:44;4.97;;;1.20;;
25868;SDS011;13688;53.154;18.136;2024-01-27T07:33:06;4.37;;;1.17;;
25868;SDS011;13688;53.154;18.136;2024-01-27T07:38:29;4.83;;;1.30;;
25868;SDS011;13688;53.154;18.136;2024-01-27T07:43:53;3.60;;;0.93;;
25868;SDS011;13688;53.154;18.136;2024-01-27T07:49:29;5.87;;;1.17;;
25868;SDS011;13688;53.154;18.136;2024-01-27T07:54:52;7.70;;;1.12;;
25868;SDS011;13688;53.154;18.136;2024-01-27T08:00:15;4.67;;;1.40;;
25868;SDS011;13688;53.154;18.136;2024-01-27T08:05:38;6.53;;;1.20;;
25868;SDS011;13688;53.154;18.136;2024-01-27T08:11:00;4.45;;;1.15;;
25868;SDS011;13688;53.154;18.136;2024-01-27T08:16:23;4.97;;;1.20;;
25868;SDS011;13688;53.154;18.136;2024-01-27T08:21:47;6.28;;;1.65;;
25868;SDS011;13688;53.154;18.136;2024-01-27T08:27:09;3.95;;;1.17;;
25868;SDS011;13688;53.154;18.136;2024-01-27T08:32:31;3.22;;;1.30;;
25868;SDS011;13688;53.154;18.136;2024-01-27T08:37:54;3.62;;;1.25;;
25868;SDS011;13688;53.154;18.136;2024-01-27T08:43:16;7.08;;;1.35;;
25868;SDS011;13688;53.154;18.136;2024-01-27T08:48:40;7.62;;;1.52;;
25868;SDS011;13688;53.154;18.136;2024-01-27T08:54:02;3.40;;;1.40;;
25868;SDS011;13688;53.154;18.136;2024-01-27T08:59:25;10.63;;;2.17;;
25868;SDS011;13688;53.154;18.136;2024-01-27T09:04:48;8.75;;;1.82;;
25868;SDS011;13688;53.154;18.136;2024-01-27T09:10:10;8.08;;;2.12;;
25868;SDS011;13688;53.154;18.136;2024-01-27T09:15:33;10.13;;;2.10;;
25868;SDS011;13688;53.154;18.136;2024-01-27T09:20:55;9.10;;;2.22;;
25868;SDS011;13688;53.154;18.136;2024-01-27T09:26:19;13.78;;;2.85;;
25868;SDS011;13688;53.154;18.136;2024-01-27T09:31:42;13.95;;;2.92;;
25868;SDS011;13688;53.154;18.136;2024-01-27T09:37:05;10.25;;;2.45;;
25868;SDS011;13688;53.154;18.136;2024-01-27T09:42:29;15.18;;;3.17;;
25868;SDS011;13688;53.154;18.136;2024-01-27T09:47:59;12.93;;;3.03;;
25868;SDS011;13688;53.154;18.136;2024-01-27T09:53:24;14.87;;;2.47;;
25868;SDS011;13688;53.154;18.136;2024-01-27T09:58:47;12.85;;;2.05;;
25868;SDS011;13688;53.154;18.136;2024-01-27T10:04:16;11.43;;;2.60;;
25868;SDS011;13688;53.154;18.136;2024-01-27T10:09:42;14.30;;;2.77;;
25868;SDS011;13688;53.154;18.136;2024-01-27T10:15:23;8.23;;;2.02;;
25868;SDS011;13688;53.154;18.136;2024-01-27T10:20:43;11.95;;;2.08;;
25868;SDS011;13688;53.154;18.136;2024-01-27T10:26:08;14.40;;;3.20;;
25868;SDS011;13688;53.154;18.136;2024-01-27T10:31:30;14.38;;;2.85;;
25868;SDS011;13688;53.154;18.136;2024-01-27T10:36:57;16.35;;;2.75;;
25868;SDS011;13688;53.154;18.136;2024-01-27T10:42:23;10.08;;;2.60;;
25868;SDS011;13688;53.154;18.136;2024-01-27T10:47:48;9.18;;;2.08;;
25868;SDS011;13688;53.154;18.136;2024-01-27T10:53:21;9.10;;;2.30;;
25868;SDS011;13688;53.154;18.136;2024-01-27T10:58:45;11.12;;;2.70;;
25868;SDS011;13688;53.154;18.136;2024-01-27T11:04:08;11.45;;;2.37;;
25868;SDS011;13688;53.154;18.136;2024-01-27T11:09:33;15.65;;;3.27;;
25868;SDS011;13688;53.154;18.136;2024-01-27T11:14:59;13.75;;;2.35;;
25868;SDS011;13688;53.154;18.136;2024-01-27T11:20:23;13.25;;;2.55;;
25868;SDS011;13688;53.154;18.136;2024-01-27T11:26:01;10.18;;;2.52;;
25868;SDS011;13688;53.154;18.136;2024-01-27T11:31:20;9.05;;;2.20;;
25868;SDS011;13688;53.154;18.136;2024-01-27T11:36:43;11.75;;;2.27;;
25868;SDS011;13688;53.154;18.136;2024-01-27T11:42:12;12.55;;;2.25;;
25868;SDS011;13688;53.154;18.136;2024-01-27T11:47:32;11.15;;;2.67;;
25868;SDS011;13688;53.154;18.136;2024-01-27T11:52:56;12.33;;;2.95;;
25868;SDS011;13688;53.154;18.136;2024-01-27T11:58:20;17.35;;;2.70;;
25868;SDS011;13688;53.154;18.136;2024-01-27T12:03:43;13.38;;;2.50;;
25868;SDS011;13688;53.154;18.136;2024-01-27T12:09:06;11.78;;;2.25;;
25868;SDS011;13688;53.154;18.136;2024-01-27T12:14:39;10.75;;;2.50;;
25868;SDS011;13688;53.154;18.136;2024-01-27T12:20:05;15.43;;;2.92;;
25868;SDS011;13688;53.154;18.136;2024-01-27T12:25:32;13.13;;;2.58;;
25868;SDS011;13688;53.154;18.136;2024-01-27T12:30:57;13.03;;;2.70;;
25868;SDS011;13688;53.154;18.136;2024-01-27T12:36:21;16.10;;;2.87;;
25868;SDS011;13688;53.154;18.136;2024-01-27T12:41:45;14.40;;;3.17;;
25868;SDS011;13688;53.154;18.136;2024-01-27T12:47:12;16.32;;;2.80;;
25868;SDS011;13688;53.154;18.136;2024-01-27T12:52:36;9.03;;;2.40;;
25868;SDS011;13688;53.154;18.136;2024-01-27T12:57:59;15.43;;;2.75;;
25868;SDS011;13688;53.154;18.136;2024-01-27T13:03:23;15.38;;;2.80;;
25868;SDS011;13688;53.154;18.136;2024-01-27T13:08:48;18.77;;;3.83;;
25868;SDS011;13688;53.154;18.136;2024-01-27T13:14:12;10.40;;;2.98;;
25868;SDS011;13688;53.154;18.136;2024-01-27T13:19:34;13.08;;;3.17;;
25868;SDS011;13688;53.154;18.136;2024-01-27T13:24:57;17.02;;;3.30;;
25868;SDS011;13688;53.154;18.136;2024-01-27T13:30:20;13.32;;;3.37;;
25868;SDS011;13688;53.154;18.136;2024-01-27T13:35:43;13.83;;;3.35;;
25868;SDS011;13688;53.154;18.136;2024-01-27T13:41:06;13.70;;;2.90;;
25868;SDS011;13688;53.154;18.136;2024-01-27T13:46:29;13.22;;;3.30;;
25868;SDS011;13688;53.154;18.136;2024-01-27T13:51:52;15.00;;;2.80;;
25868;SDS011;13688;53.154;18.136;2024-01-27T13:57:15;13.85;;;3.35;;
25868;SDS011;13688;53.154;18.136;2024-01-27T14:02:39;17.62;;;3.70;;
25868;SDS011;13688;53.154;18.136;2024-01-27T14:08:03;12.90;;;2.90;;
25868;SDS011;13688;53.154;18.136;2024-01-27T14:13:26;16.17;;;3.15;;
25868;SDS011;13688;53.154;18.136;2024-01-27T14:18:48;17.57;;;3.25;;
25868;SDS011;13688;53.154;18.136;2024-01-27T14:24:12;22.67;;;3.67;;
25868;SDS011;13688;53.154;18.136;2024-01-27T14:29:37;13.13;;;3.50;;
25868;SDS011;13688;53.154;18.136;2024-01-27T14:35:00;14.85;;;3.67;;
25868;SDS011;13688;53.154;18.136;2024-01-27T14:40:24;15.70;;;3.22;;
25868;SDS011;13688;53.154;18.136;2024-01-27T14:45:47;16.37;;;3.83;;
25868;SDS011;13688;53.154;18.136;2024-01-27T14:51:10;19.65;;;3.75;;
25868;SDS011;13688;53.154;18.136;2024-01-27T14:56:32;15.65;;;3.20;;
25868;SDS011;13688;53.154;18.136;2024-01-27T15:01:55;19.55;;;4.00;;
25868;SDS011;13688;53.154;18.136;2024-01-27T15:07:20;16.80;;;3.40;;
25868;SDS011;13688;53.154;18.136;2024-01-27T15:12:43;13.50;;;3.27;;
25868;SDS011;13688;53.154;18.136;2024-01-27T15:18:06;16.95;;;3.60;;
25868;SDS011;13688;53.154;18.136;2024-01-27T15:23:29;24.43;;;4.10;;
25868;SDS011;13688;53.154;18.136;2024-01-27T15:28:53;19.50;;;4.25;;
25868;SDS011;13688;53.154;18.136;2024-01-27T15:34:16;17.05;;;3.98;;
25868;SDS011;13688;53.154;18.136;2024-01-27T15:39:40;15.20;;;3.22;;
25868;SDS011;13688;53.154;18.136;2024-01-27T15:45:03;14.38;;;3.83;;
25868;SDS011;13688;53.154;18.136;2024-01-27T15:50:30;20.37;;;3.60;;
25868;SDS011;13688;53.154;18.136;2024-01-27T15:55:53;13.93;;;3.27;;
25868;SDS011;13688;53.154;18.136;2024-01-27T16:01:16;18.67;;;3.95;;
25868;SDS011;13688;53.154;18.136;2024-01-27T16:06:40;29.10;;;5.37;;
25868;SDS011;13688;53.154;18.136;2024-01-27T16:12:06;19.12;;;4.90;;
25868;SDS011;13688;53.154;18.136;2024-01-27T16:17:29;18.87;;;4.35;;
25868;SDS011;13688;53.154;18.136;2024-01-27T16:22:52;21.07;;;3.98;;
25868;SDS011;13688;53.154;18.136;2024-01-27T16:28:14;21.35;;;4.20;;
25868;SDS011;13688;53.154;18.136;2024-01-27T16:33:38;23.45;;;4.65;;
25868;SDS011;13688;53.154;18.136;2024-01-27T16:39:00;22.45;;;3.62;;
25868;SDS011;13688;53.154;18.136;2024-01-27T16:44:23;20.70;;;3.95;;
25868;SDS011;13688;53.154;18.136;2024-01-27T16:49:45;15.15;;;3.90;;
25868;SDS011;13688;53.154;18.136;2024-01-27T16:55:08;21.87;;;4.53;;
25868;SDS011;13688;53.154;18.136;2024-01-27T17:00:30;18.80;;;4.10;;
25868;SDS011;13688;53.154;18.136;2024-01-27T17:05:53;27.85;;;4.70;;
25868;SDS011;13688;53.154;18.136;2024-01-27T17:11:16;23.55;;;4.05;;
25868;SDS011;13688;53.154;18.136;2024-01-27T17:16:38;14.78;;;3.60;;
25868;SDS011;13688;53.154;18.136;2024-01-27T17:22:01;19.00;;;3.83;;
25868;SDS011;13688;53.154;18.136;2024-01-27T17:27:24;22.13;;;4.33;;
25868;SDS011;13688;53.154;18.136;2024-01-27T17:32:47;20.00;;;4.12;;
25868;SDS011;13688;53.154;18.136;2024-01-27T17:38:16;10.23;;;2.27;;
25868;SDS011;13688;53.154;18.136;2024-01-27T17:43:42;20.02;;;3.95;;
25868;SDS011;13688;53.154;18.136;2024-01-27T17:49:09;20.55;;;4.72;;
25868;SDS011;13688;53.154;18.136;2024-01-27T17:54:32;18.23;;;3.37;;
25868;SDS011;13688;53.154;18.136;2024-01-27T17:59:55;16.35;;;3.47;;
25868;SDS011;13688;53.154;18.136;2024-01-27T18:05:19;22.58;;;4.28;;
25868;SDS011;13688;53.154;18.136;2024-01-27T18:10:54;20.40;;;3.70;;
25868;SDS011;13688;53.154;18.136;2024-01-27T18:16:17;16.82;;;3.52;;
25868;SDS011;13688;53.154;18.136;2024-01-27T18:21:39;20.20;;;4.25;;
25868;SDS011;13688;53.154;18.136;2024-01-27T18:27:04;17.12;;;3.15;;
25868;SDS011;13688;53.154;18.136;2024-01-27T18:32:27;16.57;;;3.10;;
25868;SDS011;13688;53.154;18.136;2024-01-27T18:37:50;18.30;;;3.25;;
25868;SDS011;13688;53.154;18.136;2024-01-27T18:43:13;14.13;;;2.75;;
25868;SDS011;13688;53.154;18.136;2024-01-27T18:48:36;12.53;;;2.85;;
25868;SDS011;13688;53.154;18.136;2024-01-27T18:53:59;18.25;;;4.37;;
25868;SDS011;13688;53.154;18.136;2024-01-27T18:59:28;15.87;;;4.00;;
25868;SDS011;13688;53.154;18.136;2024-01-27T19:04:52;19.65;;;3.60;;
25868;SDS011;13688;53.154;18.136;2024-01-27T19:10:15;14.10;;;3.33;;
25868;SDS011;13688;53.154;18.136;2024-01-27T19:15:38;12.47;;;2.50;;
25868;SDS011;13688;53.154;18.136;2024-01-27T19:21:01;13.55;;;2.98;;
25868;SDS011;13688;53.154;18.136;2024-01-27T19:26:23;16.55;;;3.45;;
25868;SDS011;13688;53.154;18.136;2024-01-27T19:31:47;16.23;;;3.52;;
25868;SDS011;13688;53.154;18.136;2024-01-27T19:37:09;12.00;;;2.60;;
25868;SDS011;13688;53.154;18.136;2024-01-27T19:42:32;18.15;;;3.58;;
25868;SDS011;13688;53.154;18.136;2024-01-27T19:47:55;16.25;;;2.85;;
25868;SDS011;13688;53.154;18.136;2024-01-27T19:53:18;12.53;;;2.92;;
25868;SDS011;13688;53.154;18.136;2024-01-27T19:58:41;12.03;;;2.90;;
25868;SDS011;13688;53.154;18.136;2024-01-27T20:04:03;10.78;;;2.22;;
25868;SDS011;13688;53.154;18.136;2024-01-27T20:09:26;13.98;;;2.77;;
25868;SDS011;13688;53.154;18.136;2024-01-27T20:14:51;11.05;;;2.60;;
25868;SDS011;13688;53.154;18.136;2024-01-27T20:20:17;11.25;;;2.80;;
25868;SDS011;13688;53.154;18.136;2024-01-27T20:25:41;7.10;;;1.92;;
25868;SDS011;13688;53.154;18.136;2024-01-27T20:31:04;7.67;;;2.25;;
25868;SDS011;13688;53.154;18.136;2024-01-27T20:36:31;6.33;;;2.17;;
25868;SDS011;13688;53.154;18.136;2024-01-27T20:41:54;9.68;;;2.40;;
25868;SDS011;13688;53.154;18.136;2024-01-27T20:47:17;11.48;;;2.77;;
25868;SDS011;13688;53.154;18.136;2024-01-27T20:52:40;7.92;;;2.25;;
25868;SDS011;13688;53.154;18.136;2024-01-27T20:58:03;6.42;;;1.92;;
25868;SDS011;13688;53.154;18.136;2024-01-27T21:03:26;5.97;;;1.80;;
25868;SDS011;13688;53.154;18.136;2024-01-27T21:09:07;7.13;;;1.73;;
25868;SDS011;13688;53.154;18.136;2024-01-27T21:14:27;6.78;;;1.90;;
25868;SDS011;13688;53.154;18.136;2024-01-27T21:19:50;6.87;;;1.80;;
25868;SDS011;13688;53.154;18.136;2024-01-27T21:25:14;8.20;;;2.05;;
25868;SDS011;13688;53.154;18.136;2024-01-27T21:30:47;8.23;;;2.00;;
25868;SDS011;13688;53.154;18.136;2024-01-27T21:36:10;4.33;;;1.32;;
25868;SDS011;13688;53.154;18.136;2024-01-27T21:41:32;4.37;;;1.50;;
25868;SDS011;13688;53.154;18.136;2024-01-27T21:46:55;4.72;;;1.27;;
25868;SDS011;13688;53.154;18.136;2024-01-27T21:52:17;3.77;;;1.60;;
25868;SDS011;13688;53.154;18.136;2024-01-27T21:57:40;5.15;;;1.50;;
25868;SDS011;13688;53.154;18.136;2024-01-27T22:03:02;5.25;;;1.35;;
25868;SDS011;13688;53.154;18.136;2024-01-27T22:08:25;6.10;;;1.65;;
25868;SDS011;13688;53.154;18.136;2024-01-27T22:13:48;3.12;;;1.07;;
25868;SDS011;13688;53.154;18.136;2024-01-27T22:19:11;3.17;;;1.02;;
25868;SDS011;13688;53.154;18.136;2024-01-27T22:24:34;3.87;;;1.22;;
25868;SDS011;13688;53.154;18.136;2024-01-27T22:29:57;3.05;;;1.00;;
25868;SDS011;13688;53.154;18.136;2024-01-27T22:35:20;3.55;;;1.12;;
25868;SDS011;13688;53.154;18.136;2024-01-27T22:40:43;4.90;;;1.27;;
25868;SDS011;13688;53.154;18.136;2024-01-27T22:46:06;3.12;;;0.90;;
25868;SDS011;13688;53.154;18.136;2024-01-27T22:51:29;2.50;;;1.00;;
25868;SDS011;13688;53.154;18.136;2024-01-27T22:56:53;2.42;;;0.93;;
25868;SDS011;13688;53.154;18.136;2024-01-27T23:02:15;2.47;;;1.00;;
25868;SDS011;13688;53.154;18.136;2024-01-27T23:07:38;3.40;;;1.10;;
25868;SDS011;13688;53.154;18.136;2024-01-27T23:13:00;2.05;;;1.10;;
25868;SDS011;13688;53.154;18.136;2024-01-27T23:18:25;4.17;;;1.00;;
25868;SDS011;13688;53.154;18.136;2024-01-27T23:23:47;4.37;;;0.98;;
25868;SDS011;13688;53.154;18.136;2024-01-27T23:29:10;2.60;;;0.90;;
25868;SDS011;13688;53.154;18.136;2024-01-27T23:34:34;4.25;;;1.10;;
25868;SDS011;13688;53.154;18.136;2024-01-27T23:39:57;4.58;;;1.10;;
25868;SDS011;13688;53.154;18.136;2024-01-27T23:45:21;3.87;;;1.27;;
25868;SDS011;13688;53.154;18.136;2024-01-27T23:50:44;3.83;;;1.17;;
25868;SDS011;13688;53.154;18.136;2024-01-27T23:56:07;4.58;;;1.45;;
